MST,Max TemperatureF,Mean TemperatureF,Min TemperatureF,Max Dew PointF,MeanDew PointF,Min DewpointF,Max Humidity, Mean Humidity, Min Humidity, Max Sea Level PressureIn, Mean Sea Level PressureIn, Min Sea Level PressureIn, Max VisibilityMiles, Mean VisibilityMiles, Min VisibilityMiles, Max Wind SpeedMPH, Mean Wind SpeedMPH, Max Gust SpeedMPH,PrecipitationIn, CloudCover, Events, WindDirDegrees
2011-9-1,100,85,70,41,33,28,34,22,9,29.73,29.68,29.63,10,10,10,31,11,41,0.00,0,,201
2011-9-2,98,81,64,40,34,20,32,20,7,30.02,29.75,29.70,10,10,10,20,7,25,0.00,0,,201
2011-9-3,98,84,70,43,39,33,35,23,11,29.77,29.73,29.70,10,10,10,16,3,20,0.00,1,,247
2011-9-4,102,84,65,41,36,31,37,24,10,29.77,29.72,29.68,10,10,10,18,5,26,0.00,0,,217
2011-9-5,88,78,67,63,50,39,81,52,23,29.94,29.82,29.70,10,10,10,22,9,26,0.03,4,Rain,319
2011-9-6,90,78,66,63,55,48,87,57,26,29.94,29.89,29.82,10,10,10,23,8,30,0.02,1,Rain,33
2011-9-7,97,80,63,50,42,32,56,34,11,29.95,29.89,29.83,10,10,10,17,7,25,0.00,0,,10
2011-9-8,99,82,64,39,35,31,37,24,11,30.00,29.84,29.74,10,10,10,23,7,29,0.00,0,,5
2011-9-9,95,83,70,51,43,36,46,31,15,29.91,29.75,29.65,10,10,10,32,15,39,0.02,1,Rain,99
2011-9-10,88,77,65,50,47,41,56,41,26,29.84,29.78,29.71,10,10,10,22,10,24,T,1,,133
2011-9-11,89,78,67,54,50,35,59,39,19,30.10,29.90,29.81,10,10,6,41,18,47,T,3,Rain,149
2011-9-12,89,76,63,58,51,42,61,41,21,30.05,29.97,29.91,10,10,10,22,11,25,0.06,2,,97
2011-9-13,71,64,57,59,57,53,100,75,49,30.29,30.06,29.93,10,8,2,32,10,39,1.10,6,Rain,141
2011-9-14,73,64,54,60,55,51,93,71,49,30.06,29.88,29.81,10,10,2,17,6,22,0.06,4,Rain,180
2011-9-15,81,68,55,57,53,48,93,63,33,29.87,29.81,29.74,10,10,10,14,4,21,0.00,0,,184
2011-9-16,85,72,59,55,48,37,84,52,19,29.83,29.79,29.75,10,10,10,25,11,38,0.00,0,,173
2011-9-17,85,73,61,54,48,40,78,49,20,29.93,29.86,29.78,10,10,10,20,9,24,0.00,0,,196
2011-9-18,89,74,59,53,46,34,72,44,15,30.01,29.95,29.91,10,10,10,13,4,17,0.00,0,,223
2011-9-19,93,77,60,50,44,39,64,40,16,29.97,29.90,29.83,10,10,10,12,4,16,0.00,0,,217
2011-9-20,94,77,59,46,41,33,56,34,12,29.88,29.82,29.75,10,10,10,14,4,21,0.00,0,,209
2011-9-21,94,77,60,47,34,28,51,31,10,29.84,29.81,29.78,10,10,10,15,6,18,0.00,0,,186
2011-9-22,97,79,60,39,31,25,39,24,9,29.93,29.88,29.84,10,10,10,13,5,15,0.00,0,,219
2011-9-23,96,79,62,39,32,29,36,23,10,29.98,29.91,29.85,10,10,10,15,5,20,0.00,0,,212
2011-9-24,96,79,61,47,38,33,39,26,12,30.04,29.83,29.75,10,10,9,31,9,38,0.00,0,,150
2011-9-25,92,76,60,42,38,34,49,32,14,29.78,29.73,29.67,10,10,10,22,10,26,0.00,0,,178
2011-9-26,89,73,57,37,31,25,39,25,10,29.88,29.81,29.74,10,10,9,17,7,21,0.00,0,,144
2011-9-27,92,75,57,40,36,32,43,29,14,29.95,29.89,29.83,10,10,9,13,5,18,0.00,0,,230
2011-9-28,95,76,57,40,36,32,47,30,12,29.93,29.87,29.81,10,10,10,22,6,25,0.00,0,,229
2011-9-29,95,78,60,42,37,35,37,25,13,29.89,29.84,29.78,10,10,10,17,6,21,0.00,0,,194
2011-9-30,93,79,64,54,42,36,57,36,15,29.93,29.86,29.78,10,10,10,29,8,33,0.03,2,,107